Altenburg, Missouri
Current Conditions -  °F | °C
As of 1:52 AM on Thursday 27 Nov 2014 (Local Time) from KMDH Reporting Station
Haze Haze  
Wind Chill: 25°   Ceiling: 400
Heat Index: 33°   Visibility: 6mi
Dew Point: 31°   Wind: 10mph
Humidity: 92%   Direction: 330°NNW
Pressure: 30.23"   Gusts: NA
Location:  37.63°N, 89.59°W
Report Text: KMDH 270752Z AUTO 33009KT 6SM BR OVC004 01/M01 A3023 RMK AO2 SLP239 T00061006
Loading
Personal Weather Stations






























Interactive Weather Map New forecast layout! Learn more

10-Day Weather Forecast

Advertisements
Track Severe Weather on mobile